^^
Grace C. Lehan Memorial Weather Station Historical Data
Daily Summary for March 24, 2021 Units:  English    Metric   Both
Daily Weekly Monthly Yearly
  High: Low: Average:
Temperature: 30.3 °F 17.7 °F 23.1 °F
Dew Point: 7.8 °F 2.5 °F 5.7 °F
Humidity: 60% 32% 48%
Wind Speed: 13mph 0.4mph 5.9mph
Wind Gust: 27mph - -
Wind- - NW
Pressure: 30.10 in 30.02 in -
Precipitation: 0.00 in    
 
 
Tabular Data for March 24, 2021
Time Temperature Dew Point Pressure Wind Wind Speed Wind Gust Humidity Rainfall Rate (Hourly) solar
00:04 20.1 °F 7 °F 30.06 in WNW 6.1 mph 22 mph 56% 0.00 in 0 W/m2
00:09 20.1 °F 6.9 °F 30.06 in NW 6.6 mph 18 mph 56% 0.00 in 0 W/m2
00:14 20 °F 6.8 °F 30.05 in NW 9 mph 22 mph 56% 0.00 in 0 W/m2
00:19 20 °F 6.8 °F 30.05 in NNW 5.7 mph 22 mph 56% 0.00 in 0 W/m2
00:24 19.9 °F 6.8 °F 30.06 in NNW 4.6 mph 22 mph 56.2% 0.00 in 0 W/m2
00:29 19.9 °F 7 °F 30.05 in NNW 4.5 mph 22 mph 56.6% 0.00 in 0 W/m2
00:34 19.8 °F 6.9 °F 30.05 in NW 4.4 mph 22 mph 56.6% 0.00 in 0 W/m2
00:39 19.8 °F 7 °F 30.05 in NW 7.8 mph 22 mph 56.9% 0.00 in 0 W/m2
00:44 19.8 °F 6.7 °F 30.05 in NW 5.9 mph 22 mph 56% 0.00 in 0 W/m2
00:49 19.8 °F 6.7 °F 30.05 in NW 6.1 mph 22 mph 56.2% 0.00 in 0 W/m2
00:54 19.8 °F 6.9 °F 30.05 in WNW 7.7 mph 22 mph 56.7% 0.00 in 0 W/m2
00:59 19.8 °F 6.7 °F 30.05 in NW 11.5 mph 22 mph 56% 0.00 in 0 W/m2
01:04 19.8 °F 6.7 °F 30.05 in WNW 7.8 mph 22 mph 56% 0.00 in 0 W/m2
01:09 19.8 °F 6.7 °F 30.05 in WNW 9.5 mph 21 mph 56% 0.00 in 0 W/m2
01:14 19.8 °F 6.7 °F 30.05 in WNW 11.1 mph 22 mph 56% 0.00 in 0 W/m2
01:19 19.7 °F 6.7 °F 30.06 in WNW 9.9 mph 22 mph 56.2% 0.00 in 0 W/m2
01:24 19.7 °F 7 °F 30.07 in WNW 9 mph 22 mph 57% 0.00 in 0 W/m2
01:29 19.7 °F 6.9 °F 30.07 in WNW 7.5 mph 22 mph 57% 0.00 in 0 W/m2
01:34 19.6 °F 6.8 °F 30.06 in NW 6.6 mph 22 mph 57% 0.00 in 0 W/m2
01:39 19.5 °F 6.8 °F 30.07 in NW 8 mph 16 mph 57% 0.00 in 0 W/m2
01:44 19.5 °F 6.8 °F 30.07 in WNW 10 mph 17 mph 57% 0.00 in 0 W/m2
01:49 19.5 °F 6.8 °F 30.07 in WNW 7.7 mph 17 mph 57% 0.00 in 0 W/m2
01:54 19.4 °F 6.8 °F 30.07 in NW 4.8 mph 17 mph 57.4% 0.00 in 0 W/m2
01:59 19.4 °F 7.6 °F 30.07 in NW 4.5 mph 17 mph 59.5% 0.00 in 0 W/m2
02:04 19.3 °F 6.9 °F 30.07 in WNW 3.6 mph 17 mph 58% 0.00 in 0 W/m2
02:09 19.2 °F 7.1 °F 30.07 in NW 4.2 mph 13 mph 58.7% 0.00 in 0 W/m2
02:14 19.1 °F 7.1 °F 30.07 in NW 5 mph 13 mph 59% 0.00 in 0 W/m2
02:19 19.1 °F 7.1 °F 30.07 in WNW 5.9 mph 14 mph 59% 0.00 in 0 W/m2
02:24 19 °F 7.1 °F 30.07 in WNW 3.6 mph 14 mph 59% 0.00 in 0 W/m2
02:29 18.9 °F 7.2 °F 30.07 in WNW 3.9 mph 14 mph 59.5% 0.00 in 0 W/m2
02:34 18.8 °F 7.3 °F 30.07 in WNW 3.5 mph 14 mph 60% 0.00 in 0 W/m2
02:39 18.8 °F 7.2 °F 30.07 in WNW 7.7 mph 17 mph 60% 0.00 in 0 W/m2
02:44 18.7 °F 7.1 °F 30.07 in NW 3.4 mph 17 mph 60% 0.00 in 0 W/m2
02:49 18.6 °F 7.1 °F 30.07 in WNW 3.5 mph 17 mph 60% 0.00 in 0 W/m2
02:54 18.6 °F 7 °F 30.07 in WNW 4.7 mph 17 mph 60% 0.00 in 0 W/m2
02:59 18.5 °F 6.9 °F 30.07 in WNW 4 mph 17 mph 60% 0.00 in 0 W/m2
03:04 18.4 °F 6.9 °F 30.07 in WNW 6.2 mph 17 mph 60% 0.00 in 0 W/m2
03:09 18.4 °F 6.9 °F 30.07 in WNW 7.4 mph 14 mph 60% 0.00 in 0 W/m2
03:14 18.4 °F 6.9 °F 30.07 in NW 5.8 mph 14 mph 60% 0.00 in 0 W/m2
03:19 18.4 °F 6.8 °F 30.06 in WNW 5.5 mph 15 mph 60% 0.00 in 0 W/m2
03:24 18.3 °F 6.8 °F 30.06 in NW 5.5 mph 15 mph 60% 0.00 in 0 W/m2
03:29 18.2 °F 6.7 °F 30.07 in NW 6.8 mph 15 mph 60% 0.00 in 0 W/m2
03:34 18.2 °F 6.7 °F 30.06 in NW 6.7 mph 15 mph 60% 0.00 in 0 W/m2
03:39 18.2 °F 6.7 °F 30.06 in WNW 5.7 mph 15 mph 60% 0.00 in 0 W/m2
03:44 18.2 °F 6.7 °F 30.07 in WNW 6.7 mph 17 mph 60% 0.00 in 0 W/m2
03:49 18.2 °F 6.7 °F 30.07 in NW 3.9 mph 17 mph 60% 0.00 in 0 W/m2
03:54 18.1 °F 6.6 °F 30.07 in NW 3.9 mph 17 mph 60% 0.00 in 0 W/m2
03:59 18.1 °F 6.6 °F 30.07 in WNW 4.8 mph 17 mph 60% 0.00 in 0 W/m2
04:00 18.1 °F 6.6 °F 30.07 in WNW 1 mph 17 mph 60% 0.00 in 0 W/m2
04:09 18 °F 6.5 °F 30.07 in WNW 3.4 mph 7 mph 60% 0.00 in 0 W/m2
04:14 18 °F 6.5 °F 30.07 in NNW 4.2 mph 10 mph 60% 0.00 in 0 W/m2
04:19 18 °F 6.5 °F 30.07 in NW 5.6 mph 13 mph 60% 0.00 in 0 W/m2
04:24 18 °F 6.5 °F 30.07 in NW 6.8 mph 13 mph 60% 0.00 in 0 W/m2
04:29 18.1 °F 6.5 °F 30.07 in NW 4.8 mph 13 mph 59.8% 0.00 in 0 W/m2
04:34 18 °F 6.5 °F 30.07 in NW 3.4 mph 13 mph 60% 0.00 in 0 W/m2
04:39 18 °F 6.3 °F 30.08 in WNW 4.1 mph 7 mph 59.5% 0.00 in 0 W/m2
04:44 18 °F 6.4 °F 30.08 in WNW 4.2 mph 13 mph 59.8% 0.00 in 0 W/m2
04:49 18 °F 6.4 °F 30.08 in WNW 3.5 mph 13 mph 59.7% 0.00 in 0 W/m2
04:54 18 °F 6.3 °F 30.08 in WNW 3.1 mph 13 mph 59.7% 0.00 in 0 W/m2
04:59 18 °F 6.2 °F 30.09 in NW 5 mph 13 mph 59.2% 0.00 in 0 W/m2
05:04 18 °F 6.1 °F 30.09 in NW 3.2 mph 13 mph 59% 0.00 in 0 W/m2
05:09 18 °F 5.8 °F 30.09 in NW 4.8 mph 15 mph 58.1% 0.00 in 0 W/m2
05:14 18 °F 5.7 °F 30.09 in NW 5.6 mph 15 mph 58% 0.00 in 0 W/m2
05:19 18.1 °F 5.5 °F 30.09 in NW 4.6 mph 15 mph 57.3% 0.00 in 0 W/m2
05:24 18.1 °F 5.4 °F 30.09 in WNW 3.8 mph 15 mph 57% 0.00 in 0 W/m2
05:29 18.1 °F 5.4 °F 30.09 in WNW 2.8 mph 15 mph 57% 0.00 in 0 W/m2
05:34 18.1 °F 5.4 °F 30.09 in NW 3.2 mph 15 mph 57% 0.00 in 0 W/m2
05:39 18 °F 5.4 °F 30.09 in NNW 2.4 mph 8 mph 57% 0.00 in 0 W/m2
05:44 18 °F 5.4 °F 30.10 in NW 3.1 mph 8 mph 57% 0.00 in 0 W/m2
05:49 18 °F 5.3 °F 30.10 in NW 4 mph 11 mph 57% 0.00 in 0 W/m2
05:54 17.9 °F 5.3 °F 30.09 in NW 2.7 mph 11 mph 57% 0.00 in 0 W/m2
05:59 17.9 °F 5.3 °F 30.09 in NW 1.8 mph 11 mph 57% 0.00 in 0 W/m2
06:04 17.9 °F 5.3 °F 30.09 in NW 1.9 mph 11 mph 57% 0.00 in 0 W/m2
06:09 17.8 °F 5.2 °F 30.09 in WNW 1.6 mph 6 mph 57% 0.00 in 0 W/m2
06:14 17.7 °F 5.1 °F 30.09 in NW 3.3 mph 7 mph 56.9% 0.00 in 0 W/m2
06:19 17.7 °F 4.7 °F 30.09 in NW 2.3 mph 9 mph 56% 0.00 in 0 W/m2
06:24 17.7 °F 4.9 °F 30.08 in NNW 3.1 mph 9 mph 56.4% 0.00 in 0 W/m2
06:29 17.7 °F 4.7 °F 30.09 in NNW 2.2 mph 9 mph 56% 0.00 in 0 W/m2
06:34 17.7 °F 4.7 °F 30.09 in NW 5.2 mph 13 mph 56% 0.00 in 0 W/m2
06:39 17.8 °F 4.5 °F 30.09 in NW 3.7 mph 13 mph 55.2% 0.00 in 0 W/m2
06:44 17.9 °F 4.5 °F 30.09 in NW 1.3 mph 13 mph 55% 0.00 in 0 W/m2
06:49 17.9 °F 4.5 °F 30.09 in NW 2.7 mph 13 mph 55% 0.00 in 0 W/m2
06:54 17.9 °F 4.6 °F 30.10 in NW 3.2 mph 13 mph 55.2% 0.00 in 0 W/m2
06:59 17.9 °F 4.5 °F 30.10 in NW 4 mph 13 mph 55.1% 0.00 in 0 W/m2
07:04 17.9 °F 4.5 °F 30.10 in NW 3.6 mph 13 mph 55% 0.00 in 0 W/m2
07:09 17.9 °F 4.4 °F 30.10 in WNW 3 mph 7 mph 54.9% 0.00 in 0 W/m2
07:14 17.9 °F 4.1 °F 30.10 in WNW 2 mph 7 mph 54.1% 0.00 in 5 W/m2
07:19 17.9 °F 4.4 °F 30.10 in WNW 3.5 mph 7 mph 54.9% 0.00 in 9 W/m2
07:24 17.9 °F 4.3 °F 30.10 in NW 4.1 mph 7 mph 54.6% 0.00 in 12 W/m2
07:29 18 °F 4.4 °F 30.10 in NW 2.8 mph 7 mph 54.7% 0.00 in 16 W/m2
07:34 18.1 °F 4.5 °F 30.10 in WNW 4 mph 10 mph 54.6% 0.00 in 21 W/m2
07:39 18.2 °F 4.3 °F 30.10 in WNW 5.9 mph 11 mph 53.8% 0.00 in 30 W/m2
07:44 18.5 °F 4.2 °F 30.09 in WNW 5.6 mph 14 mph 53% 0.00 in 28 W/m2
07:49 18.7 °F 4 °F 30.10 in WNW 8.1 mph 21 mph 52.2% 0.00 in 42 W/m2
07:54 18.9 °F 3.8 °F 30.10 in WNW 3.4 mph 21 mph 51.2% 0.00 in 39 W/m2
07:59 19.1 °F 4.4 °F 30.10 in NW 2.9 mph 21 mph 52% 0.00 in 46 W/m2
08:00 19.3 °F 4.6 °F 30.10 in WNW 8 mph 21 mph 52% 0.00 in 63 W/m2
08:09 19.5 °F 3.9 °F 30.10 in WNW 6.1 mph 12 mph 50% 0.00 in 54 W/m2
08:14 19.6 °F 3.7 °F 30.10 in WNW 8.3 mph 16 mph 49.3% 0.00 in 79 W/m2
08:19 19.6 °F 3.5 °F 30.10 in WNW 8.9 mph 21 mph 48.8% 0.00 in 49 W/m2
08:24 19.6 °F 3.5 °F 30.10 in WNW 8.9 mph 21 mph 48.9% 0.00 in 113 W/m2
08:29 19.7 °F 3.2 °F 30.10 in WNW 6.2 mph 21 mph 48% 0.00 in 137 W/m2
08:34 20 °F 3.6 °F 30.10 in NW 7.2 mph 21 mph 48.3% 0.00 in 128 W/m2
08:39 20.3 °F 3.8 °F 30.10 in NW 7 mph 14 mph 48% 0.00 in 128 W/m2
08:44 20.5 °F 3.5 °F 30.10 in WNW 8 mph 14 mph 47% 0.00 in 127 W/m2
08:49 20.6 °F 3.6 °F 30.10 in WNW 6.2 mph 14 mph 47% 0.00 in 176 W/m2
08:54 20.7 °F 3.4 °F 30.10 in WNW 3.9 mph 14 mph 46.5% 0.00 in 195 W/m2
08:59 21 °F 3.9 °F 30.10 in WNW 5 mph 15 mph 47% 0.00 in 179 W/m2
09:04 21.4 °F 3.8 °F 30.10 in NW 6.1 mph 15 mph 45.9% 0.00 in 160 W/m2
09:09 21.7 °F 3.5 °F 30.10 in NW 8.7 mph 19 mph 44.7% 0.00 in 227 W/m2
09:14 21.7 °F 3.1 °F 30.10 in WNW 8.3 mph 19 mph 44% 0.00 in 227 W/m2
09:19 21.7 °F 3.2 °F 30.10 in WNW 7.1 mph 19 mph 44% 0.00 in 279 W/m2
09:24 21.8 °F 3.3 °F 30.10 in WNW 5.9 mph 19 mph 44% 0.00 in 209 W/m2
09:29 22.1 °F 3.5 °F 30.10 in WNW 6.1 mph 19 mph 44% 0.00 in 297 W/m2
09:34 22.4 °F 3.2 °F 30.09 in WNW 8.6 mph 19 mph 42.8% 0.00 in 288 W/m2
09:39 22.6 °F 3.4 °F 30.10 in NW 5.4 mph 18 mph 42.8% 0.00 in 162 W/m2
09:44 22.8 °F 3.3 °F 30.09 in WNW 8.3 mph 18 mph 42.3% 0.00 in 151 W/m2
09:49 22.8 °F 2.9 °F 30.09 in WNW 10 mph 20 mph 41.5% 0.00 in 244 W/m2
09:54 22.7 °F 2.7 °F 30.09 in WNW 8.3 mph 20 mph 41.2% 0.00 in 204 W/m2
09:59 22.7 °F 2.8 °F 30.09 in WNW 8.8 mph 26 mph 41.4% 0.00 in 149 W/m2
10:04 22.7 °F 3 °F 30.09 in WNW 8.5 mph 26 mph 41.9% 0.00 in 144 W/m2
10:09 22.6 °F 2.5 °F 30.09 in WNW 8.6 mph 18 mph 41.1% 0.00 in 135 W/m2
10:14 22.7 °F 2.8 °F 30.09 in WNW 11.3 mph 23 mph 41.6% 0.00 in 237 W/m2
10:19 22.8 °F 2.7 °F 30.09 in WNW 9.4 mph 23 mph 41% 0.00 in 264 W/m2
10:24 23.1 °F 3 °F 30.09 in NW 7.5 mph 23 mph 41.2% 0.00 in 253 W/m2
10:29 23.6 °F 3.5 °F 30.09 in WNW 7 mph 23 mph 41.2% 0.00 in 357 W/m2
10:34 24.1 °F 4.1 °F 30.09 in West 4.9 mph 23 mph 41.5% 0.00 in 357 W/m2
10:39 24.9 °F 4.4 °F 30.09 in WNW 8.1 mph 19 mph 40.8% 0.00 in 311 W/m2
10:44 25.4 °F 4.2 °F 30.09 in NW 5.1 mph 19 mph 39.7% 0.00 in 468 W/m2
10:49 25.9 °F 4.5 °F 30.08 in NW 7.1 mph 19 mph 39.2% 0.00 in 494 W/m2
10:54 26.5 °F 4.3 °F 30.08 in WNW 6.9 mph 19 mph 38% 0.00 in 522 W/m2
10:59 27 °F 4 °F 30.08 in WNW 10.4 mph 20 mph 36.8% 0.00 in 527 W/m2
11:04 26.9 °F 3.6 °F 30.08 in WNW 8.1 mph 20 mph 36.2% 0.00 in 529 W/m2
11:09 26.9 °F 4.2 °F 30.08 in NW 7.5 mph 20 mph 37% 0.00 in 292 W/m2
11:14 27.1 °F 3.5 °F 30.07 in WNW 9.4 mph 20 mph 35.7% 0.00 in 165 W/m2
11:19 27.1 °F 3.7 °F 30.07 in WNW 7.3 mph 20 mph 35.9% 0.00 in 128 W/m2
11:24 27.2 °F 3.6 °F 30.07 in WNW 11 mph 22 mph 35.7% 0.00 in 371 W/m2
11:29 27 °F 3.2 °F 30.07 in WNW 9.9 mph 22 mph 35.3% 0.00 in 202 W/m2
11:34 26.8 °F 3 °F 30.07 in NW 10.4 mph 22 mph 35.1% 0.00 in 373 W/m2
11:39 26.9 °F 3.3 °F 30.06 in WNW 7.1 mph 21 mph 35.7% 0.00 in 373 W/m2
11:44 27.1 °F 3.9 °F 30.06 in WNW 7 mph 21 mph 36.3% 0.00 in 162 W/m2
11:49 27.6 °F 4.3 °F 30.06 in WNW 6.8 mph 21 mph 36.2% 0.00 in 156 W/m2
11:54 28.1 °F 4.3 °F 30.05 in WNW 6.8 mph 21 mph 35.6% 0.00 in 142 W/m2
11:59 28.3 °F 4.2 °F 30.05 in NW 6.5 mph 21 mph 35% 0.00 in 169 W/m2
12:00 28.4 °F 4.3 °F 30.05 in West 4.5 mph 21 mph 35% 0.00 in 218 W/m2
12:09 28.7 °F 4.3 °F 30.05 in WNW 10.5 mph 21 mph 34.6% 0.00 in 554 W/m2
12:14 28.6 °F 4.5 °F 30.05 in WNW 9.1 mph 21 mph 35% 0.00 in 468 W/m2
12:19 28.6 °F 4.5 °F 30.05 in WNW 8.1 mph 21 mph 35% 0.00 in 468 W/m2
12:24 28.8 °F 4.6 °F 30.04 in WNW 10.2 mph 21 mph 35.1% 0.00 in 276 W/m2
12:29 28.8 °F 4.6 °F 30.04 in WNW 8.7 mph 21 mph 35% 0.00 in 151 W/m2
12:34 28.9 °F 4.6 °F 30.04 in WNW 11.8 mph 23 mph 35% 0.00 in 153 W/m2
12:39 28.9 °F 4.1 °F 30.04 in WNW 8.6 mph 23 mph 34.2% 0.00 in 83 W/m2
12:44 29 °F 4.7 °F 30.03 in WNW 9.3 mph 23 mph 34.8% 0.00 in 171 W/m2
12:49 29.3 °F 4.5 °F 30.03 in WNW 10.2 mph 23 mph 34.1% 0.00 in 155 W/m2
12:54 29.4 °F 4.5 °F 30.03 in WNW 8.5 mph 23 mph 34% 0.00 in 153 W/m2
12:59 29.6 °F 4.9 °F 30.03 in WNW 6.9 mph 23 mph 34.3% 0.00 in 283 W/m2
13:04 29.8 °F 4.8 °F 30.03 in NW 7.8 mph 23 mph 33.8% 0.00 in 283 W/m2
13:09 29.8 °F 3.9 °F 30.03 in WNW 13 mph 23 mph 32.4% 0.00 in 262 W/m2
13:14 29.6 °F 3.4 °F 30.02 in NW 12.7 mph 27 mph 32% 0.00 in 207 W/m2
13:19 29.5 °F 3.8 °F 30.02 in NW 9.2 mph 27 mph 32.8% 0.00 in 309 W/m2
13:24 29.5 °F 4 °F 30.03 in NW 10.1 mph 27 mph 33% 0.00 in 309 W/m2
13:29 29.6 °F 4 °F 30.03 in NW 10.7 mph 27 mph 33% 0.00 in 229 W/m2
13:34 29.8 °F 4.6 °F 30.03 in NW 10.3 mph 27 mph 33.7% 0.00 in 271 W/m2
13:39 29.8 °F 4.5 °F 30.03 in NW 9.3 mph 20 mph 33.4% 0.00 in 109 W/m2
13:44 30 °F 4.7 °F 30.02 in NW 7.4 mph 20 mph 33.5% 0.00 in 160 W/m2
13:49 30.1 °F 5 °F 30.02 in WNW 10.5 mph 23 mph 33.8% 0.00 in 334 W/m2
13:54 30 °F 4.4 °F 30.03 in WNW 12.5 mph 25 mph 33% 0.00 in 181 W/m2
13:59 29.7 °F 4.6 °F 30.03 in NW 11.5 mph 25 mph 33.7% 0.00 in 192 W/m2
14:04 29.6 °F 4.5 °F 30.03 in WNW 8.4 mph 25 mph 33.6% 0.00 in 156 W/m2
14:09 29.6 °F 4.7 °F 30.03 in NW 9.4 mph 20 mph 34% 0.00 in 183 W/m2
14:14 29.8 °F 4.8 °F 30.03 in NW 10.6 mph 20 mph 34% 0.00 in 229 W/m2
14:19 29.9 °F 5 °F 30.03 in NW 6.7 mph 20 mph 34% 0.00 in 329 W/m2
14:24 30.1 °F 5.2 °F 30.03 in NNW 4.8 mph 20 mph 34% 0.00 in 204 W/m2
14:29 30.3 °F 5.3 °F 30.03 in WNW 6 mph 20 mph 34% 0.00 in 265 W/m2
14:34 30.2 °F 5.2 °F 30.04 in WNW 7.4 mph 20 mph 34% 0.00 in 257 W/m2
14:39 30.1 °F 5.1 °F 30.03 in NW 5 mph 16 mph 34% 0.00 in 54 W/m2
14:44 30.1 °F 5.1 °F 30.04 in WNW 6.3 mph 17 mph 34% 0.00 in 77 W/m2
14:49 30 °F 5.2 °F 30.04 in WNW 11 mph 19 mph 34.2% 0.00 in 227 W/m2
14:54 29.8 °F 5 °F 30.04 in WNW 10.7 mph 19 mph 34.2% 0.00 in 160 W/m2
14:59 29.5 °F 5.2 °F 30.04 in NW 9.6 mph 19 mph 35% 0.00 in 60 W/m2
15:04 29.4 °F 5.1 °F 30.04 in WNW 9.2 mph 19 mph 35% 0.00 in 30 W/m2
15:09 29.4 °F 5.1 °F 30.04 in WNW 9.8 mph 20 mph 35% 0.00 in 28 W/m2
15:14 29.3 °F 5.1 °F 30.05 in WNW 10.2 mph 20 mph 35% 0.00 in 28 W/m2
15:19 29.2 °F 5.3 °F 30.05 in NW 7.5 mph 20 mph 35.5% 0.00 in 28 W/m2
15:24 29.2 °F 5.4 °F 30.05 in WNW 7.4 mph 20 mph 35.8% 0.00 in 28 W/m2
15:29 29.2 °F 5.6 °F 30.05 in WNW 7 mph 20 mph 36% 0.00 in 26 W/m2
15:34 29.3 °F 5.7 °F 30.05 in WNW 8.6 mph 20 mph 36% 0.00 in 26 W/m2
15:39 29.2 °F 5.6 °F 30.05 in WNW 9.9 mph 18 mph 36% 0.00 in 26 W/m2
15:44 29 °F 5.4 °F 30.05 in NW 8 mph 18 mph 36% 0.00 in 25 W/m2
15:49 28.9 °F 5.7 °F 30.04 in NW 5.4 mph 18 mph 36.6% 0.00 in 23 W/m2
15:54 28.8 °F 5.8 °F 30.04 in NW 3.6 mph 18 mph 37% 0.00 in 21 W/m2
15:59 28.9 °F 6.1 °F 30.05 in WNW 3.7 mph 18 mph 37.4% 0.00 in 19 W/m2
16:04 28.8 °F 6.4 °F 30.05 in WNW 5 mph 5 mph 38% 0.00 in 18 W/m2
16:09 28.7 °F 6.3 °F 30.05 in WNW 5.5 mph 14 mph 37.8% 0.00 in 18 W/m2
16:14 28.6 °F 6.1 °F 30.05 in WNW 8.4 mph 17 mph 37.8% 0.00 in 16 W/m2
16:19 28.4 °F 6.1 °F 30.05 in NW 6.2 mph 17 mph 38% 0.00 in 16 W/m2
16:24 28.3 °F 5.9 °F 30.05 in NW 3.7 mph 17 mph 38% 0.00 in 14 W/m2
16:29 28.1 °F 6.2 °F 30.06 in WNW 4.6 mph 17 mph 38.6% 0.00 in 14 W/m2
16:34 28 °F 6.2 °F 30.06 in NW 4.1 mph 17 mph 39% 0.00 in 9 W/m2
16:39 27.8 °F 6.2 °F 30.06 in WNW 5.6 mph 14 mph 39.4% 0.00 in 7 W/m2
16:44 27.5 °F 6.4 °F 30.06 in WNW 5.9 mph 14 mph 40% 0.00 in 5 W/m2
16:49 27.3 °F 6.2 °F 30.06 in WNW 8.8 mph 16 mph 40% 0.00 in 5 W/m2
16:54 27 °F 6.3 °F 30.06 in WNW 8.3 mph 16 mph 40.8% 0.00 in 0 W/m2
16:59 26.8 °F 6.2 °F 30.06 in WNW 7.3 mph 16 mph 41% 0.00 in 0 W/m2
17:04 26.5 °F 6.1 °F 30.06 in WNW 7.8 mph 18 mph 41.1% 0.00 in 0 W/m2
17:09 26.3 °F 6.4 °F 30.06 in WNW 6.2 mph 18 mph 42% 0.00 in 0 W/m2
17:14 26.1 °F 6.3 °F 30.06 in WNW 7.5 mph 18 mph 42.2% 0.00 in 0 W/m2
17:19 25.9 °F 6.4 °F 30.06 in WNW 9.5 mph 18 mph 42.8% 0.00 in 0 W/m2
17:24 25.7 °F 6.3 °F 30.06 in WNW 8.2 mph 18 mph 43% 0.00 in 0 W/m2
17:29 25.6 °F 6.2 °F 30.06 in WNW 3.8 mph 18 mph 43% 0.00 in 0 W/m2
17:34 25.5 °F 6.6 °F 30.07 in WNW 4.3 mph 18 mph 43.9% 0.00 in 0 W/m2
17:39 25.3 °F 6.5 °F 30.06 in WNW 5.5 mph 15 mph 44% 0.00 in 0 W/m2
17:44 25.2 °F 6.4 °F 30.07 in NW 6.1 mph 16 mph 44% 0.00 in 0 W/m2
17:49 25.1 °F 6.3 °F 30.07 in NW 6.9 mph 16 mph 44% 0.00 in 0 W/m2
17:54 25 °F 6.2 °F 30.08 in WNW 5.7 mph 16 mph 44% 0.00 in 0 W/m2
17:59 25 °F 6.1 °F 30.08 in WNW 4.3 mph 16 mph 44% 0.00 in 0 W/m2
18:04 24.9 °F 6.4 °F 30.08 in WNW 4.7 mph 16 mph 44.6% 0.00 in 0 W/m2
18:09 24.8 °F 6.5 °F 30.08 in WNW 7 mph 17 mph 45% 0.00 in 0 W/m2
18:14 24.7 °F 6.4 °F 30.07 in WNW 6.4 mph 17 mph 45% 0.00 in 0 W/m2
18:19 24.6 °F 6.4 °F 30.07 in WNW 6.7 mph 17 mph 45.2% 0.00 in 0 W/m2
18:24 24.5 °F 6.4 °F 30.07 in WNW 6.7 mph 17 mph 45.5% 0.00 in 0 W/m2
18:29 24.5 °F 6.4 °F 30.08 in WNW 6.8 mph 17 mph 45.3% 0.00 in 0 W/m2
18:34 24.5 °F 6.7 °F 30.08 in NW 5.6 mph 17 mph 46% 0.00 in 0 W/m2
18:39 24.5 °F 6.6 °F 30.08 in NW 3.7 mph 13 mph 46% 0.00 in 0 W/m2
18:44 24.4 °F 6.6 °F 30.08 in NW 2.4 mph 13 mph 46% 0.00 in 0 W/m2
18:49 24.4 °F 6.6 °F 30.08 in NW 4.3 mph 13 mph 46% 0.00 in 0 W/m2
18:54 24.4 °F 6.6 °F 30.08 in WNW 1.7 mph 13 mph 46% 0.00 in 0 W/m2
18:59 24.4 °F 6.8 °F 30.07 in NNW 1.3 mph 13 mph 46.5% 0.00 in 0 W/m2
19:04 24.3 °F 6.7 °F 30.08 in NNW 2 mph 13 mph 46.3% 0.00 in 0 W/m2
19:09 24.3 °F 7 °F 30.07 in NW 3.7 mph 9 mph 47% 0.00 in 0 W/m2
19:14 24.2 °F 6.9 °F 30.07 in NW 3.4 mph 9 mph 47% 0.00 in 0 W/m2
19:19 24.2 °F 6.9 °F 30.07 in WNW 5.5 mph 13 mph 47% 0.00 in 0 W/m2
19:24 24.2 °F 6.9 °F 30.07 in West 3.9 mph 13 mph 47% 0.00 in 0 W/m2
19:29 24.2 °F 6.9 °F 30.07 in WNW 2.2 mph 13 mph 47% 0.00 in 0 W/m2
19:34 24.1 °F 6.8 °F 30.08 in NW 0.4 mph 13 mph 47% 0.00 in 0 W/m2
19:39 24.1 °F 6.8 °F 30.08 in NNW 2.8 mph 11 mph 47.1% 0.00 in 0 W/m2
19:44 24 °F 6.9 °F 30.07 in NW 1.1 mph 11 mph 47.5% 0.00 in 0 W/m2
19:49 24 °F 7.1 °F 30.07 in NNW 2.3 mph 11 mph 47.8% 0.00 in 0 W/m2
19:54 23.9 °F 7.1 °F 30.07 in NW 2.6 mph 11 mph 48% 0.00 in 0 W/m2
19:59 23.9 °F 7.1 °F 30.07 in WNW 3.6 mph 11 mph 48% 0.00 in 0 W/m2
20:09 23.8 °F 7 °F 30.07 in WNW 2.1 mph 7 mph 48% 0.00 in 0 W/m2
20:14 23.8 °F 7 °F 30.07 in WNW 4.1 mph 11 mph 48% 0.00 in 0 W/m2
20:19 23.7 °F 7 °F 30.07 in NW 2.9 mph 11 mph 48.3% 0.00 in 0 W/m2
20:24 23.6 °F 7 °F 30.07 in NW 5.5 mph 11 mph 48.4% 0.00 in 0 W/m2
20:29 23.6 °F 7.2 °F 30.07 in NW 5.5 mph 11 mph 48.8% 0.00 in 0 W/m2
20:34 23.5 °F 7.2 °F 30.07 in WNW 7.2 mph 14 mph 49% 0.00 in 0 W/m2
20:39 23.5 °F 7.2 °F 30.07 in NW 6.2 mph 14 mph 49% 0.00 in 0 W/m2
20:44 23.5 °F 7.1 °F 30.07 in WNW 5.3 mph 14 mph 49% 0.00 in 0 W/m2
20:49 23.4 °F 7.4 °F 30.07 in NW 5.4 mph 14 mph 49.6% 0.00 in 0 W/m2
20:54 23.4 °F 7.5 °F 30.08 in NW 5.9 mph 14 mph 50% 0.00 in 0 W/m2
20:59 23.4 °F 7.5 °F 30.07 in WNW 6.1 mph 14 mph 50% 0.00 in 0 W/m2
21:04 23.4 °F 7.5 °F 30.07 in WNW 3.5 mph 14 mph 50% 0.00 in 0 W/m2
21:09 23.4 °F 7.5 °F 30.07 in WNW 7.3 mph 13 mph 50% 0.00 in 0 W/m2
21:14 23.3 °F 7.4 °F 30.07 in WNW 5 mph 13 mph 50% 0.00 in 0 W/m2
21:19 23.3 °F 7.6 °F 30.07 in NW 6.2 mph 13 mph 50.5% 0.00 in 0 W/m2
21:24 23.3 °F 7.4 °F 30.07 in WNW 6 mph 13 mph 50% 0.00 in 0 W/m2
21:29 23.3 °F 7.5 °F 30.07 in WNW 5.1 mph 13 mph 50.2% 0.00 in 0 W/m2
21:34 23.3 °F 7.6 °F 30.06 in WNW 6 mph 13 mph 50.4% 0.00 in 0 W/m2
21:39 23.3 °F 7.6 °F 30.06 in WNW 7.1 mph 13 mph 50.5% 0.00 in 0 W/m2
21:44 23.2 °F 7.6 °F 30.06 in WNW 3.9 mph 13 mph 50.7% 0.00 in 0 W/m2
21:49 23.2 °F 7.7 °F 30.07 in WNW 4.7 mph 13 mph 51% 0.00 in 0 W/m2
21:54 23.1 °F 7.7 °F 30.07 in WNW 4.8 mph 13 mph 51% 0.00 in 0 W/m2
21:59 23.1 °F 7.6 °F 30.07 in WNW 2.2 mph 13 mph 51% 0.00 in 0 W/m2
22:04 23 °F 7.7 °F 30.07 in WNW 3.8 mph 13 mph 51.3% 0.00 in 0 W/m2
22:09 22.9 °F 7.8 °F 30.07 in WNW 3.8 mph 9 mph 51.8% 0.00 in 0 W/m2
22:14 22.8 °F 7.8 °F 30.07 in WNW 4.8 mph 12 mph 52% 0.00 in 0 W/m2
22:19 22.7 °F 7.7 °F 30.07 in WNW 4.6 mph 16 mph 52% 0.00 in 0 W/m2
22:24 22.6 °F 7.6 °F 30.07 in WNW 5.9 mph 16 mph 52% 0.00 in 0 W/m2
22:29 22.5 °F 7.6 °F 30.07 in NW 4.5 mph 16 mph 52% 0.00 in 0 W/m2
22:34 22.5 °F 7.5 °F 30.07 in WNW 5.8 mph 16 mph 52% 0.00 in 0 W/m2
22:39 22.5 °F 7.5 °F 30.07 in WNW 3.1 mph 12 mph 52.1% 0.00 in 0 W/m2
22:44 22.4 °F 7.8 °F 30.07 in WNW 4.9 mph 12 mph 52.9% 0.00 in 0 W/m2
22:49 22.4 °F 7.6 °F 30.07 in NW 4.4 mph 12 mph 52.3% 0.00 in 0 W/m2
22:54 22.3 °F 7.8 °F 30.07 in NW 3.6 mph 12 mph 53% 0.00 in 0 W/m2
22:58 22.3 °F 7.8 °F 30.07 in WNW 3.2 mph 12 mph 53% 0.00 in 0 W/m2
23:04 22.2 °F 7.7 °F 30.07 in WNW 1.6 mph 4 mph 53% 0.00 in 0 W/m2
23:09 22.2 °F 7.7 °F 30.07 in WNW 3.5 mph 10 mph 53% 0.00 in 0 W/m2
23:14 22.2 °F 7.7 °F 30.07 in WNW 3.5 mph 10 mph 53% 0.00 in 0 W/m2
23:19 22.1 °F 7.6 °F 30.07 in NW 5.6 mph 16 mph 53% 0.00 in 0 W/m2
23:24 22.1 °F 7.6 °F 30.07 in NW 4.8 mph 16 mph 53% 0.00 in 0 W/m2
23:29 22 °F 7.5 °F 30.07 in NW 3.5 mph 16 mph 53% 0.00 in 0 W/m2
23:34 22 °F 7.5 °F 30.07 in WNW 3.1 mph 16 mph 53% 0.00 in 0 W/m2
23:39 22 °F 7.5 °F 30.07 in WNW 2.6 mph 6 mph 53% 0.00 in 0 W/m2
23:44 22 °F 7.5 °F 30.06 in NW 2.1 mph 7 mph 53% 0.00 in 0 W/m2
23:49 21.9 °F 7.4 °F 30.06 in NW 2.3 mph 7 mph 53% 0.00 in 0 W/m2
23:54 21.8 °F 7.3 °F 30.06 in NNW 2.8 mph 8 mph 53% 0.00 in 0 W/m2
23:59 21.8 °F 7.3 °F 30.07 in NNW 2.7 mph 8 mph 53% 0.00 in 0 W/m2
Hartford County Weather
Compliments of Weather Underground - 2 mb